Garrettsville, Ohio
Current Conditions -  °F | °C
As of 2:18 PM on Friday 24 Oct 2014 (Local Time) from KPOV Reporting Station
Clear Clear  
Wind Chill: 59°   Ceiling: Unl
Heat Index: 59°   Visibility: 10mi
Dew Point: 36°   Wind: 6mph
Humidity: 42%   Direction: 260°W
Pressure: 30.03"   Gusts: NA
Location:  41.28°N, 81.1°W
Report Text: KPOV 241818Z AUTO 26005KT 10SM CLR 15/02 A3003 RMK AO2 T01480020
Loading
Personal Weather Stations






























Interactive Weather Map
Tropical Storm Tracking
New forecast layout! Learn more

10-Day Weather Forecast

Advertisements
Track Severe Weather on mobile